Time;durP1;ratioP1;P1;durP2;ratioP2;P2;SDS_P1;SDS_P2;PMS_P1;PMS_P2;Temp;Humidity;BMP_temperature;BMP_pressure;BME280_temperature;BME280_humidity;BME280_pressure;Samples;Min_cycle;Max_cycle;Signal;HPM_P1;HPM_P2
2022/11/15 00:00:46;;;;;;;7.45;5.47;;;18.70;86.90;;;19.17;49.34;99057.97;5011458;28;20369;-74
2022/11/15 00:03:15;;;;;;;7.22;6.03;;;18.70;86.90;;;19.13;49.25;99052.28;5013820;28;20069;-74
2022/11/15 00:05:41;;;;;;;6.20;5.60;;;18.70;86.80;;;19.16;49.61;99057.16;5030687;28;20041;-74
2022/11/15 00:08:08;;;;;;;7.43;5.88;;;18.70;87.00;;;19.17;49.55;99055.22;5027466;28;20117;-74
2022/11/15 00:10:37;;;;;;;7.07;5.47;;;18.70;87.00;;;19.15;49.45;99052.78;5030502;28;20041;-74
2022/11/15 00:13:07;;;;;;;8.15;6.43;;;18.70;87.00;;;19.14;49.58;99048.41;5032921;28;20463;-74
2022/11/15 00:15:40;;;;;;;7.38;5.82;;;18.70;87.00;;;19.18;49.43;99051.31;5032009;28;20052;-74
2022/11/15 00:18:12;;;;;;;7.18;5.20;;;18.70;86.90;;;19.16;49.37;99037.06;5012611;28;20480;-74
2022/11/15 00:20:38;;;;;;;6.20;5.03;;;18.70;86.90;;;19.12;49.56;99036.13;5012179;28;20087;-74
2022/11/15 00:23:04;;;;;;;7.20;5.13;;;18.70;87.00;;;19.15;49.54;99036.28;5030491;28;20072;-74
2022/11/15 00:25:31;;;;;;;7.65;5.30;;;18.60;87.00;;;19.14;49.48;99031.91;5010974;28;20060;-74
2022/11/15 00:27:58;;;;;;;6.57;5.18;;;18.60;87.30;;;19.12;49.61;99028.69;5026443;28;20049;-74
2022/11/15 00:30:24;;;;;;;6.70;5.03;;;18.70;87.00;;;19.14;49.53;99029.16;4995001;28;20874;-74
2022/11/15 00:32:50;;;;;;;7.20;5.82;;;18.60;86.80;;;19.16;49.31;99026.09;5029782;28;20041;-74
2022/11/15 00:35:17;;;;;;;5.93;5.07;;;18.70;86.90;;;19.14;49.41;99031.13;5028607;28;20073;-74
2022/11/15 00:37:43;;;;;;;6.72;5.47;;;18.60;86.70;;;19.15;49.45;99025.28;4979744;28;20888;-74
2022/11/15 00:40:10;;;;;;;8.25;5.68;;;18.70;86.90;;;19.13;49.62;99024.78;4995680;28;20046;-74
2022/11/15 00:42:36;;;;;;;7.47;5.85;;;18.70;87.20;;;19.11;49.61;99027.09;5015680;28;20125;-74
2022/11/15 00:45:03;;;;;;;6.30;5.53;;;18.60;87.10;;;19.14;49.54;99014.63;4995721;28;20045;-74
2022/11/15 00:47:28;;;;;;;7.05;4.95;;;18.60;86.90;;;19.11;49.54;99016.09;5030988;28;20037;-74
2022/11/15 00:49:55;;;;;;;7.18;6.03;;;18.60;87.00;;;19.10;49.52;99017.19;5035594;28;20042;-74
2022/11/15 00:52:21;;;;;;;7.25;5.65;;;18.60;86.90;;;19.13;49.48;99016.53;5026994;28;20068;-74
2022/11/15 00:54:47;;;;;;;6.25;5.40;;;18.60;86.80;;;19.15;49.66;99016.22;5011853;28;20045;-74
2022/11/15 00:57:13;;;;;;;7.43;5.63;;;18.60;87.00;;;19.13;49.49;99019.28;5026277;28;20178;-74
2022/11/15 00:59:39;;;;;;;6.13;4.95;;;18.70;87.10;;;19.09;49.56;99015.59;5016984;28;20052;-74
2022/11/15 01:02:05;;;;;;;6.60;5.45;;;18.70;86.80;;;19.12;49.50;99011.38;5028496;28;20396;-74
2022/11/15 01:04:31;;;;;;;7.25;5.85;;;18.70;86.90;;;19.09;49.32;99004.59;5011358;28;20048;-74
2022/11/15 01:06:57;;;;;;;6.38;5.40;;;18.60;86.70;;;19.11;49.67;99007.84;5035430;28;20141;-74
2022/11/15 01:09:23;;;;;;;6.78;6.05;;;18.60;86.70;;;19.11;49.41;99007.00;5031982;28;20424;-74
2022/11/15 01:11:49;;;;;;;7.07;5.28;;;18.60;86.80;;;19.10;49.54;99006.19;5022696;28;20069;-74
2022/11/15 01:14:15;;;;;;;7.40;6.05;;;18.70;87.00;;;19.06;49.65;99011.56;5026500;28;20055;-74
2022/11/15 01:16:41;;;;;;;6.47;4.97;;;18.70;87.00;;;19.07;49.48;99006.84;5026648;28;20041;-74
2022/11/15 01:19:08;;;;;;;6.47;5.45;;;18.60;86.70;;;19.11;49.36;99018.84;5024070;28;20049;-74
2022/11/15 01:21:36;;;;;;;8.02;5.45;;;18.70;86.90;;;19.13;49.24;99015.75;5031182;28;20095;-74
2022/11/15 01:24:03;;;;;;;8.07;5.43;;;18.60;86.60;;;19.08;49.37;99013.97;5012263;28;20857;-74
2022/11/15 01:26:29;;;;;;;7.70;6.15;;;18.60;86.70;;;19.07;49.46;99020.59;5032030;28;20103;-74
2022/11/15 01:28:55;;;;;;;5.68;5.07;;;18.60;86.70;;;19.03;49.64;99014.13;5015535;28;20045;-74
2022/11/15 01:31:21;;;;;;;9.63;5.20;;;18.60;86.90;;;19.07;49.67;99010.41;5027675;28;20049;-74
2022/11/15 01:33:47;;;;;;;7.28;5.72;;;18.70;87.20;;;19.05;49.62;99007.16;4996919;28;20433;-74
2022/11/15 01:36:21;;;;;;;6.28;4.60;;;18.60;86.80;;;19.08;49.22;99008.47;4997334;28;20048;-74
2022/11/15 01:38:55;;;;;;;6.60;5.43;;;18.50;86.70;;;19.09;49.32;99004.59;5013388;28;20037;-74
2022/11/15 01:41:27;;;;;;;6.25;5.65;;;18.50;86.80;;;19.09;49.39;98999.91;5026617;28;20049;-74
2022/11/15 01:43:55;;;;;;;5.00;4.30;;;18.60;86.80;;;19.05;49.49;98998.91;5013131;28;20041;-74
2022/11/15 01:46:34;;;;;;;5.55;4.45;;;18.60;86.90;;;19.05;49.82;98998.13;5032511;28;20134;-74
2022/11/15 01:49:04;;;;;;;8.85;5.25;;;18.60;86.90;;;19.05;49.51;98998.13;5015939;28;20506;-74
2022/11/15 01:51:31;;;;;;;5.97;4.95;;;18.60;86.70;;;19.05;49.39;98995.38;5035121;28;20504;-74
2022/11/15 01:54:06;;;;;;;6.22;4.88;;;18.60;86.80;;;19.03;49.48;98995.72;5014341;28;20424;-74
2022/11/15 01:56:37;;;;;;;6.82;5.10;;;18.50;86.80;;;19.06;49.34;98986.81;5014425;28;20049;-74
2022/11/15 01:59:04;;;;;;;;;;;18.50;86.90;;;19.01;49.52;98988.91;5017994;28;20045;-74
2022/11/15 02:01:31;;;;;;;6.03;5.32;;;18.50;87.00;;;19.02;49.56;98985.03;5018079;28;20402;-74
2022/11/15 02:04:06;;;;;;;6.15;4.95;;;18.60;87.20;;;19.01;49.72;98986.16;5029530;28;20049;-74
2022/11/15 02:06:32;;;;;;;8.27;5.68;;;18.60;86.90;;;19.02;49.48;98976.78;4996472;28;20049;-74
2022/11/15 02:08:58;;;;;;;6.85;5.15;;;18.60;86.90;;;19.05;49.57;98970.63;5001295;28;20088;-74
2022/11/15 02:11:25;;;;;;;7.10;5.18;;;18.60;86.80;;;19.04;49.27;98966.28;5014113;28;20449;-73
2022/11/15 02:13:51;;;;;;;5.53;4.90;;;18.50;86.70;;;19.04;49.54;98960.78;5030577;28;20894;-73
2022/11/15 02:16:53;;;;;;;5.70;4.75;;;18.50;87.00;;;19.02;49.68;98965.78;4995974;28;20045;-73
2022/11/15 02:19:32;;;;;;;5.25;4.47;;;18.60;86.90;;;19.04;49.63;98958.03;5018394;28;20119;-74
2022/11/15 02:22:21;;;;;;;6.10;4.80;;;18.60;87.00;;;18.97;49.45;98957.72;5035282;28;20087;-74
2022/11/15 02:25:15;;;;;;;5.13;4.55;;;18.50;86.80;;;19.03;49.55;98962.72;5034097;28;20100;-74
2022/11/15 02:28:40;;;;;;;5.13;4.63;;;18.50;86.70;;;19.00;49.43;98957.03;5030555;28;20463;-74
2022/11/15 02:31:30;;;;;;;5.90;4.32;;;18.50;86.70;;;18.98;49.47;98959.31;5025152;28;20034;-74
2022/11/15 02:34:18;;;;;;;5.97;5.38;;;18.50;87.00;;;18.96;49.68;98956.91;5016148;28;20056;-74
2022/11/15 02:37:01;;;;;;;5.82;4.70;;;18.60;87.10;;;18.99;49.63;98955.44;5035494;28;20061;-74
2022/11/15 02:40:01;;;;;;;6.57;4.93;;;18.50;86.70;;;19.01;49.61;98954.00;5020113;28;20037;-74
2022/11/15 02:45:35;;;;;;;5.05;4.55;;;18.50;86.80;;;18.98;49.25;98956.56;5019291;28;20400;-74
2022/11/15 02:48:01;;;;;;;4.88;4.38;;;18.50;86.70;;;18.93;49.64;98957.56;5001952;28;20076;-74
2022/11/15 02:50:29;;;;;;;6.32;4.75;;;18.60;87.00;;;18.96;49.89;98950.59;4998337;28;20037;-74
2022/11/15 02:52:55;;;;;;;5.78;4.55;;;18.50;87.00;;;18.98;49.68;98942.81;5001736;28;20071;-74
2022/11/15 02:55:39;;;;;;;5.13;4.63;;;18.50;86.80;;;18.97;49.46;98938.47;5018952;28;20032;-73
2022/11/15 02:58:19;;;;;;;4.15;3.75;;;18.60;86.70;;;18.99;49.38;98938.94;4998812;28;20041;-74
2022/11/15 03:01:01;;;;;;;4.40;4.00;;;18.50;86.80;;;18.98;49.33;98938.16;5028374;28;20064;-74
2022/11/15 03:04:17;;;;;;;5.40;4.57;;;18.50;86.70;;;18.97;49.58;98932.97;5028954;28;20056;-74
2022/11/15 03:06:53;;;;;;;5.15;3.95;;;18.50;86.90;;;18.94;49.69;98936.38;5031425;28;20122;-74
2022/11/15 03:09:41;;;;;;;5.40;4.90;;;18.60;86.90;;;18.95;49.48;98933.28;5032564;28;20049;-74
2022/11/15 03:12:42;;;;;;;5.18;4.38;;;18.60;86.60;;;18.96;49.37;98931.38;5037147;28;20088;-74
2022/11/15 03:15:52;;;;;;;5.47;4.33;;;18.60;86.70;;;18.98;49.33;98926.31;5015161;28;20056;-74
2022/11/15 03:18:37;;;;;;;5.80;4.80;;;18.50;86.60;;;18.96;49.30;98928.63;5011542;28;20043;-74
2022/11/15 03:21:05;;;;;;;4.38;4.00;;;18.50;86.70;;;18.93;49.43;98926.50;5007623;28;20501;-74
2022/11/15 03:23:32;;;;;;;4.47;4.07;;;18.50;86.80;;;18.90;49.57;98916.16;4994961;28;20052;-74
2022/11/15 03:25:59;;;;;;;4.80;4.10;;;18.50;86.70;;;18.90;49.58;98916.16;4995390;28;20049;-74
2022/11/15 03:28:59;;;;;;;4.88;3.67;;;18.60;86.60;;;18.94;49.49;98915.19;4995498;28;20041;-74
2022/11/15 03:31:47;;;;;;;5.18;4.13;;;18.50;86.60;;;18.93;49.20;98912.75;5019330;28;20927;-73
2022/11/15 03:34:38;;;;;;;4.65;4.25;;;18.50;86.40;;;18.91;49.41;98904.84;5012358;28;20042;-73
2022/11/15 03:37:04;;;;;;;6.93;4.75;;;18.50;86.70;;;18.89;49.58;98906.31;5016568;28;20041;-73
2022/11/15 03:39:31;;;;;;;5.90;4.72;;;18.50;86.80;;;18.87;49.78;98899.19;4998089;28;20487;-74
2022/11/15 03:42:15;;;;;;;4.55;4.10;;;18.50;86.90;;;18.87;49.57;98901.94;4993551;28;20110;-74
2022/11/15 03:44:58;;;;;;;5.47;4.47;;;18.50;86.70;;;18.90;49.78;98896.91;5029193;28;20045;-74
2022/11/15 03:47:42;;;;;;;7.65;4.68;;;18.50;87.50;;;18.89;49.25;98895.31;5019535;28;20033;-74
2022/11/15 03:50:11;;;;;;;3.85;3.55;;;18.40;86.70;;;18.89;49.30;98889.81;5000366;28;20397;-74
2022/11/15 03:52:38;;;;;;;5.90;4.40;;;18.40;86.70;;;18.89;49.25;98889.81;4995882;28;20470;-74
2022/11/15 03:55:09;;;;;;;4.00;3.63;;;18.40;86.50;;;18.88;49.02;98880.78;5011574;28;20087;-74
2022/11/15 03:57:35;;;;;;;5.75;4.57;;;18.40;86.30;;;18.85;48.97;98874.00;5001580;28;20053;-74
2022/11/15 04:00:01;;;;;;;7.63;4.72;;;18.40;86.20;;;18.88;48.94;98869.78;5024532;28;20350;-74
2022/11/15 04:02:28;;;;;;;5.95;4.97;;;18.40;86.10;;;18.91;49.24;98879.31;5028637;28;20037;-74
2022/11/15 04:04:53;;;;;;;5.65;3.85;;;18.40;86.40;;;18.85;49.14;98875.91;5031343;28;20495;-74
2022/11/15 04:07:20;;;;;;;3.65;3.35;;;18.40;86.30;;;18.85;49.29;98868.50;5028935;28;20048;-74
2022/11/15 04:10:05;;;;;;;5.25;4.57;;;18.50;86.40;;;18.80;49.13;98865.91;4994335;28;20042;-74
2022/11/15 04:12:40;;;;;;;9.55;5.57;;;18.40;86.00;;;18.82;48.99;98855.38;5032443;28;20036;-74
2022/11/15 04:15:09;;;;;;;5.20;4.18;;;18.40;86.10;;;18.83;49.11;98848.78;5024211;28;20050;-74
2022/11/15 04:17:38;;;;;;;4.32;3.88;;;18.30;86.00;;;18.83;48.94;98847.97;5001338;28;20067;-74
2022/11/15 04:25:41;;;;;;;4.57;3.67;;;18.40;86.40;;;18.81;49.06;98833.75;5024895;28;20392;-74
2022/11/15 04:28:07;;;;;;;6.68;3.83;;;18.40;85.90;;;18.81;48.87;98834.53;5034776;28;20033;-74
2022/11/15 04:30:33;;;;;;;4.68;4.03;;;18.40;85.80;;;18.80;48.72;98826.63;5009457;28;20102;-74
2022/11/15 04:33:00;;;;;;;4.32;3.92;;;18.40;85.80;;;18.78;48.74;98835.19;5029061;28;20037;-74
2022/11/15 04:35:26;;;;;;;3.92;3.63;;;18.30;85.50;;;18.79;48.86;98831.31;5007833;28;20370;-74
2022/11/15 04:37:52;;;;;;;5.90;4.47;;;18.40;85.90;;;18.79;48.93;98830.50;4992756;28;20053;-75
2022/11/15 04:40:18;;;;;;;4.03;3.63;;;18.40;86.00;;;18.76;49.20;98823.72;5029174;28;20041;-74
2022/11/15 04:42:44;;;;;;;4.70;4.13;;;18.40;86.20;;;18.76;48.70;98825.66;5035426;28;20037;-74
2022/11/15 04:45:10;;;;;;;3.80;3.45;;;18.30;85.80;;;18.77;48.54;98813.53;5002784;28;20069;-75
2022/11/15 04:47:36;;;;;;;3.55;3.25;;;18.30;85.80;;;18.73;48.50;98815.31;5007752;28;20389;-75
2022/11/15 04:50:03;;;;;;;5.40;4.32;;;18.20;85.80;;;18.76;48.65;98811.94;5009481;28;20171;-74
2022/11/15 04:52:29;;;;;;;4.53;4.10;;;18.30;85.80;;;18.73;49.09;98813.38;5004351;28;20052;-74
2022/11/15 04:54:55;;;;;;;4.55;3.75;;;18.30;86.10;;;18.79;48.97;98811.28;5030780;28;20049;-74
2022/11/15 04:57:21;;;;;;;4.75;3.90;;;18.30;86.10;;;18.76;48.76;98814.69;5030545;28;20454;-74
2022/11/15 04:59:47;;;;;;;4.20;3.80;;;18.40;85.80;;;18.75;48.56;98810.28;4994380;28;20087;-74
2022/11/15 05:02:13;;;;;;;4.82;4.10;;;18.40;85.50;;;18.76;48.56;98793.50;5031768;28;20084;-74
2022/11/15 05:04:39;;;;;;;6.05;4.10;;;18.30;85.40;;;18.76;48.46;98793.50;5007807;28;20512;-74
2022/11/15 05:07:06;;;;;;;4.35;3.95;;;18.20;85.30;;;18.75;48.50;98802.03;5031431;28;20087;-74
2022/11/15 05:09:32;;;;;;;4.50;3.90;;;18.30;85.50;;;18.74;48.60;98792.19;5032561;28;20033;-74
2022/11/15 05:11:58;;;;;;;3.72;3.42;;;18.30;85.80;;;18.75;48.84;98788.28;5011241;28;20049;-74
2022/11/15 05:14:24;;;;;;;3.50;3.10;;;18.30;85.70;;;18.71;48.71;98790.09;5033887;28;20045;-74
2022/11/15 05:16:50;;;;;;;4.70;3.97;;;18.30;85.50;;;18.70;48.71;98797.53;5031314;28;20056;-74
2022/11/15 05:19:16;;;;;;;5.40;4.10;;;18.30;85.30;;;18.67;48.54;98784.44;5015552;28;20087;-74
2022/11/15 05:21:42;;;;;;;4.70;4.20;;;18.30;85.20;;;18.71;48.37;98774.41;5015661;28;20049;-74
2022/11/15 05:24:10;;;;;;;5.18;4.30;;;18.30;85.10;;;18.71;48.74;98785.41;5029178;28;20096;-75
2022/11/15 05:26:37;;;;;;;3.95;3.53;;;18.30;85.50;;;18.73;48.74;98791.38;5035887;28;20084;-74
2022/11/15 05:29:03;;;;;;;4.95;4.00;;;18.30;85.80;;;18.68;49.21;98777.81;5014295;28;20049;-74
2022/11/15 05:31:29;;;;;;;3.88;3.28;;;18.20;86.40;;;18.67;48.53;98778.94;4976747;28;20044;-74
2022/11/15 05:33:55;;;;;;;3.97;3.33;;;18.20;85.30;;;18.70;48.64;98777.47;5029874;28;20037;-74
2022/11/15 05:36:48;;;;;;;4.45;3.47;;;18.20;85.40;;;18.69;48.17;98776.69;5000369;28;20456;-74
2022/11/15 05:39:14;;;;;;;5.32;4.05;;;18.20;85.20;;;18.67;48.42;98778.94;5031496;28;20057;-74
2022/11/15 05:41:51;;;;;;;3.95;3.55;;;18.20;85.30;;;18.65;48.64;98781.22;5028985;28;20080;-74
2022/11/15 05:44:19;;;;;;;3.70;3.22;;;18.20;85.50;;;18.65;48.76;98770.25;5021936;28;20393;-74
2022/11/15 05:46:46;;;;;;;4.32;3.60;;;18.20;85.60;;;18.63;48.48;98778.00;5028560;28;20041;-74
2022/11/15 05:49:13;;;;;;;4.15;3.75;;;18.20;85.30;;;18.64;48.29;98772.16;5011253;28;20044;-74
2022/11/15 05:51:41;;;;;;;4.95;4.05;;;18.20;85.30;;;18.65;48.49;98775.72;5019358;28;20041;-74
2022/11/15 05:54:07;;;;;;;4.03;3.50;;;18.20;85.20;;;18.66;48.16;98769.09;5026839;28;20111;-74
2022/11/15 05:56:33;;;;;;;5.88;4.20;;;18.20;85.10;;;18.64;48.40;98769.41;5001507;28;20053;-74
2022/11/15 05:58:59;;;;;;;4.72;4.05;;;18.20;85.10;;;18.66;48.43;98766.34;5028972;28;20037;-74
2022/11/15 06:01:25;;;;;;;5.32;4.82;;;18.20;85.20;;;18.65;48.43;98771.03;5017302;28;20044;-74
2022/11/15 06:03:51;;;;;;;4.22;3.72;;;18.20;85.30;;;18.66;48.35;98771.84;4996683;28;20080;-76
2022/11/15 06:06:18;;;;;;;4.00;2.90;;;18.20;85.40;;;18.65;48.72;98765.53;5012596;28;20045;-75
2022/11/15 06:08:43;;;;;;;3.95;3.65;;;18.30;85.50;;;18.63;48.48;98764.25;5034188;28;20049;-74
2022/11/15 06:11:10;;;;;;;3.65;3.35;;;18.20;85.60;;;18.64;48.58;98760.38;5031084;28;20041;-74
2022/11/15 06:13:36;;;;;;;4.65;3.72;;;18.20;85.40;;;18.64;48.52;98763.13;5023498;28;20042;-74
2022/11/15 06:16:02;;;;;;;4.03;3.72;;;18.20;85.40;;;18.66;48.37;98766.34;5029947;28;20053;-74
2022/11/15 06:18:28;;;;;;;3.95;3.30;;;18.20;85.30;;;18.69;48.48;98770.38;5026252;28;20044;-74
2022/11/15 06:20:58;;;;;;;6.72;3.83;;;18.10;85.40;;;18.66;48.67;98772.63;5030951;28;20498;-74
2022/11/15 06:23:24;;;;;;;4.13;3.70;;;18.20;85.90;;;18.65;48.72;98768.28;5017473;28;20037;-74
2022/11/15 06:25:50;;;;;;;3.25;2.95;;;18.20;85.80;;;18.65;48.62;98773.78;5018365;28;20481;-74
2022/11/15 06:28:16;;;;;;;5.30;4.00;;;18.20;85.60;;;18.66;48.44;98774.59;5002547;28;20050;-74
2022/11/15 06:30:42;;;;;;;4.75;3.67;;;18.20;85.50;;;18.67;48.40;98767.94;5004037;28;20045;-74
2022/11/15 06:33:08;;;;;;;3.80;3.35;;;18.20;85.40;;;18.66;48.17;98769.09;5015621;28;20045;-74
2022/11/15 06:35:35;;;;;;;4.70;3.97;;;18.20;85.30;;;18.68;48.62;98772.31;5018471;28;20523;-74
2022/11/15 06:38:07;;;;;;;4.30;3.85;;;18.20;85.70;;;18.67;48.73;98773.44;5002702;28;20041;-74
2022/11/15 06:40:37;;;;;;;5.70;4.22;;;18.30;85.70;;;18.66;48.69;98771.84;5004902;28;20053;-74
2022/11/15 06:43:04;;;;;;;6.35;4.40;;;18.20;85.60;;;18.64;48.61;98763.13;5016460;28;20045;-78
2022/11/15 06:45:30;;;;;;;65.93;22.10;;;18.20;85.40;;;18.64;51.12;98768.59;4997466;28;20045;-80
2022/11/15 06:47:56;;;;;;;68.07;23.80;;;18.10;89.30;;;18.74;51.42;98773.75;4991604;28;20120;-74
2022/11/15 06:50:23;;;;;;;42.63;16.90;;;18.10;89.40;;;18.72;50.46;98770.50;5017733;28;20050;-74
2022/11/15 06:52:49;;;;;;;36.42;16.52;;;18.10;88.10;;;18.74;50.31;98761.97;5023635;28;20099;-74
2022/11/15 06:55:15;;;;;;;46.70;17.30;;;18.10;88.10;;;18.74;50.15;98765.50;5023672;28;20041;-74
2022/11/15 06:57:51;;;;;;;36.65;14.73;;;18.10;88.10;;;18.76;49.79;98777.00;5021945;28;20137;-74
2022/11/15 07:00:19;;;;;;;35.53;14.10;;;18.10;87.90;;;18.74;49.75;98764.72;5036819;28;20049;-74
2022/11/15 07:02:45;;;;;;;47.67;15.77;;;18.10;87.40;;;18.72;49.84;98764.22;5009111;28;20770;-74
2022/11/15 07:05:12;;;;;;;32.85;15.68;;;18.10;87.20;;;18.66;49.74;98767.16;5006392;28;20041;-74
2022/11/15 07:07:38;;;;;;;37.20;15.88;;;18.10;87.00;;;18.71;49.55;98770.88;4990276;28;20045;-74
2022/11/15 07:10:05;;;;;;;42.00;15.02;;;18.10;86.90;;;18.74;49.52;98770.19;5007577;28;20053;-73
2022/11/15 07:12:31;;;;;;;40.22;18.23;;;18.10;87.30;;;18.75;49.68;98766.31;5021802;28;20069;-74
2022/11/15 07:14:57;;;;;;;42.88;16.95;;;18.10;87.20;;;18.73;49.32;98772.16;5022580;28;20084;-74
2022/11/15 07:17:23;;;;;;;36.97;14.77;;;18.20;87.00;;;18.72;49.40;98765.03;5027248;28;20562;-74
2022/11/15 07:19:50;;;;;;;39.92;14.75;;;18.10;86.70;;;18.72;49.21;98767.78;5024001;28;20042;-74
2022/11/15 07:22:16;;;;;;;45.22;16.00;;;18.10;86.60;;;18.73;49.22;98763.09;5010993;28;20049;-74
2022/11/15 07:24:43;;;;;;;45.95;15.32;;;18.10;86.60;;;18.77;49.22;98761.31;5030913;28;20045;-74
2022/11/15 07:27:09;;;;;;;47.33;17.08;;;18.10;86.80;;;18.79;49.07;98767.31;5023087;28;20087;-74
2022/11/15 07:29:35;;;;;;;35.22;14.60;;;18.10;86.70;;;18.80;49.04;98763.41;5028919;28;20521;-74
2022/11/15 07:32:01;;;;;;;35.55;15.32;;;18.20;86.60;;;18.81;48.94;98757.59;5026281;28;20037;-74
2022/11/15 07:34:27;;;;;;;42.47;15.85;;;18.20;86.60;;;18.82;48.99;98753.69;5029040;28;20037;-74
2022/11/15 07:36:53;;;;;;;35.33;13.57;;;18.20;86.60;;;18.83;48.93;98758.06;5012858;28;20102;-74
2022/11/15 07:39:19;;;;;;;29.88;12.98;;;18.10;86.50;;;18.83;49.15;98757.28;5013135;28;20562;-74
2022/11/15 07:41:47;;;;;;;30.73;13.38;;;18.20;86.50;;;18.87;48.83;98759.00;5026688;28;20049;-74
2022/11/15 07:44:16;;;;;;;35.63;14.07;;;18.30;86.40;;;18.90;48.81;98763.03;5027335;28;20045;-74
2022/11/15 07:46:42;;;;;;;33.83;12.93;;;18.30;86.30;;;18.90;48.79;98759.50;5024576;28;20158;-74
2022/11/15 07:49:09;;;;;;;30.30;13.55;;;18.30;86.20;;;18.87;48.75;98759.00;5010761;28;20036;-74
2022/11/15 07:51:34;;;;;;;33.80;15.20;;;18.30;86.20;;;18.90;48.84;98759.50;5023948;28;20059;-74
2022/11/15 07:54:01;;;;;;;28.92;13.20;;;18.30;86.10;;;18.92;48.64;98748.97;5021978;28;20048;-74
2022/11/15 07:56:27;;;;;;;29.20;12.93;;;18.30;86.10;;;18.98;48.72;98747.66;5012436;28;20500;-74
2022/11/15 07:58:53;;;;;;;28.58;12.90;;;18.40;86.20;;;18.98;48.79;98751.22;5023871;28;20057;-74
2022/11/15 08:01:19;;;;;;;33.85;14.15;;;18.40;86.20;;;19.01;48.69;98744.25;5030448;28;20092;-74
2022/11/15 08:03:45;;;;;;;29.98;12.65;;;18.40;86.10;;;19.05;48.65;98742.44;5027145;28;20724;-74
2022/11/15 08:06:11;;;;;;;30.20;11.73;;;18.40;86.10;;;19.06;48.40;98741.34;5026376;28;20049;-74
2022/11/15 08:08:37;;;;;;;29.15;12.13;;;18.40;86.10;;;19.06;48.49;98735.84;5012589;28;20269;-74
2022/11/15 08:11:03;;;;;;;29.77;13.23;;;18.40;86.10;;;19.13;48.37;98738.84;5028803;28;20593;-74
2022/11/15 08:13:30;;;;;;;29.13;12.65;;;18.40;86.00;;;19.17;48.38;98733.50;5022673;28;20501;-74
2022/11/15 08:16:05;;;;;;;25.98;12.63;;;18.40;86.20;;;19.18;48.56;98727.66;5029766;28;20041;-74
2022/11/15 08:18:31;;;;;;;25.30;11.55;;;18.40;86.20;;;19.18;48.45;98727.66;5000276;28;20045;-74
2022/11/15 08:21:01;;;;;;;22.70;11.68;;;18.50;86.30;;;19.23;48.28;98730.25;5002496;28;20488;-74
2022/11/15 08:23:27;;;;;;;30.38;11.55;;;18.40;86.10;;;19.27;48.15;98733.91;4991039;28;20329;-74
2022/11/15 08:26:00;;;;;;;26.90;11.85;;;18.50;86.10;;;19.33;47.87;98733.72;5020453;28;20123;-74
2022/11/15 08:28:27;;;;;;;25.65;11.13;;;18.50;86.00;;;19.27;48.30;98736.66;5003462;28;20042;-74
2022/11/15 08:30:53;;;;;;;21.60;11.35;;;18.50;86.00;;;19.33;48.09;98729.03;5023613;28;20054;-74
2022/11/15 08:33:19;;;;;;;30.25;11.43;;;18.50;86.10;;;19.37;48.13;98729.19;5008933;28;20045;-74
2022/11/15 08:35:45;;;;;;;23.77;11.50;;;18.50;86.10;;;19.39;47.94;98733.22;5006647;28;20056;-74
2022/11/15 08:38:11;;;;;;;25.92;12.10;;;18.60;86.00;;;19.38;47.94;98722.53;4985529;28;20046;-74
2022/11/15 08:40:37;;;;;;;24.15;10.90;;;18.60;86.60;;;19.44;47.80;98722.00;4993391;28;20063;-74
2022/11/15 08:43:04;;;;;;;21.63;10.88;;;18.70;85.90;;;19.46;47.80;98724.41;4978280;28;20052;-74
2022/11/15 08:45:30;;;;;;;28.45;11.13;;;18.70;85.70;;;19.46;48.14;98724.41;5004070;28;20049;-74
2022/11/15 08:47:57;;;;;;;25.85;11.07;;;18.70;85.90;;;19.48;47.84;98724.88;5007047;28;20115;-74
2022/11/15 08:50:23;;;;;;;20.70;10.90;;;18.60;85.90;;;19.50;47.80;98728.13;5009225;28;20049;-74
2022/11/15 08:52:49;;;;;;;28.25;12.60;;;18.70;86.00;;;19.52;47.66;98726.63;5019694;28;20048;-74
2022/11/15 08:55:15;;;;;;;29.85;12.07;;;18.70;85.90;;;19.51;47.67;98718.72;5023859;28;20485;-74
2022/11/15 08:57:41;;;;;;;28.80;11.20;;;18.70;85.80;;;19.53;47.78;98716.44;5010463;28;20038;-74
2022/11/15 09:00:08;;;;;;;26.55;10.30;;;18.70;85.70;;;19.51;47.88;98714.03;5006099;28;20589;-74
2022/11/15 09:02:35;;;;;;;25.92;12.45;;;18.80;85.80;;;19.57;47.67;98713.84;5013857;28;20048;-74
2022/11/15 09:05:01;;;;;;;21.05;10.20;;;18.80;85.70;;;19.59;47.59;98715.13;4975706;28;20060;-74
2022/11/15 09:07:29;;;;;;;26.02;11.70;;;18.80;85.80;;;19.57;47.84;98717.38;5022363;28;20042;-74
2022/11/15 09:09:55;;;;;;;20.90;9.05;;;18.80;85.60;;;19.62;47.56;98711.69;5028396;28;20066;-74
2022/11/15 09:12:21;;;;;;;19.85;10.30;;;18.90;85.60;;;19.64;47.69;98719.59;5012254;28;20053;-74
2022/11/15 09:14:47;;;;;;;21.75;10.65;;;19.00;85.40;;;19.64;47.52;98719.59;5022068;28;20476;-74
2022/11/15 09:17:13;;;;;;;20.15;10.38;;;19.00;85.30;;;19.63;47.59;98713.28;5025612;28;20045;-74
2022/11/15 09:19:39;;;;;;;18.17;9.32;;;18.90;85.50;;;19.64;47.73;98714.09;4997302;28;20453;-74
2022/11/15 09:22:07;;;;;;;22.33;11.95;;;18.90;85.60;;;19.62;47.53;98717.19;5026236;28;20668;-74
2022/11/15 09:24:34;;;;;;;20.15;9.80;;;18.90;85.60;;;19.61;47.71;98710.06;4991857;28;20649;-74
2022/11/15 09:27:01;;;;;;;21.33;9.82;;;18.90;85.40;;;19.65;47.66;98712.97;5029749;28;20099;-74
2022/11/15 09:29:27;;;;;;;16.92;9.27;;;18.90;85.40;;;19.68;47.50;98707.59;5028068;28;20048;-74
2022/11/15 09:31:53;;;;;;;21.25;8.82;;;18.90;85.20;;;19.66;47.47;98704.34;5008458;28;20108;-74
2022/11/15 09:34:20;;;;;;;19.55;9.90;;;19.00;85.30;;;19.69;47.48;98698.22;5026844;28;20475;-74
2022/11/15 09:36:47;;;;;;;19.95;9.05;;;19.00;85.30;;;19.72;47.58;98703.06;5036244;28;20425;-74
2022/11/15 09:39:13;;;;;;;20.30;10.27;;;19.00;86.00;;;19.71;47.42;98701.44;5023137;28;20069;-74
2022/11/15 09:41:55;;;;;;;19.48;8.93;;;19.00;85.30;;;19.69;47.44;98692.72;5030850;28;20041;-74
2022/11/15 09:44:30;;;;;;;19.65;9.98;;;19.00;85.30;;;19.72;47.56;98697.56;5023588;28;20053;-74
2022/11/15 09:47:25;;;;;;;20.30;9.75;;;19.10;85.40;;;19.70;47.41;98683.31;5025735;28;20054;-74
2022/11/15 09:49:58;;;;;;;16.50;8.27;;;19.10;85.20;;;19.69;47.36;98689.16;5025095;28;20436;-74
2022/11/15 09:52:24;;;;;;;18.00;9.70;;;19.10;85.20;;;19.70;47.62;98686.06;4994023;28;20042;-74
2022/11/15 09:54:51;;;;;;;17.98;9.70;;;19.10;85.40;;;19.73;47.50;98674.38;5029611;28;20041;-74
2022/11/15 09:57:22;;;;;;;13.35;7.75;;;19.10;85.40;;;19.74;47.68;98669.66;5002041;28;20052;-74
2022/11/15 10:00:05;;;;;;;15.13;9.05;;;19.10;85.40;;;19.71;47.37;98668.41;5030842;28;20037;-74
2022/11/15 10:03:31;;;;;;;17.63;8.82;;;19.00;85.30;;;19.69;47.71;98656.13;5012073;28;20084;-74
2022/11/15 10:06:02;;;;;;;19.08;9.40;;;19.10;85.40;;;19.70;47.77;98652.25;5018251;28;20606;-74
2022/11/15 10:08:48;;;;;;;15.60;8.60;;;19.10;86.20;;;19.72;47.56;98645.25;5018865;28;20048;-74
2022/11/15 10:11:26;;;;;;;15.35;8.10;;;19.10;85.40;;;19.76;47.51;98636.31;5024887;28;20064;-74
2022/11/15 10:13:54;;;;;;;14.65;8.23;;;19.10;85.40;;;19.76;47.40;98637.13;5023992;28;20095;-74
2022/11/15 10:16:43;;;;;;;11.43;7.80;;;19.10;85.40;;;19.74;47.54;98622.88;4995164;28;20514;-74
2022/11/15 10:19:36;;;;;;;18.98;8.30;;;19.10;85.40;;;19.76;47.53;98620.63;5026563;28;20419;-74
2022/11/15 10:22:41;;;;;;;15.10;8.38;;;19.10;85.30;;;19.76;47.48;98617.06;5025588;28;20493;-74
2022/11/15 10:25:28;;;;;;;16.95;8.20;;;19.10;85.40;;;19.77;47.55;98616.72;5024386;28;20042;-74
2022/11/15 10:28:15;;;;;;;18.25;8.38;;;19.20;85.50;;;19.78;47.45;98610.06;4996729;28;20042;-74
2022/11/15 10:30:45;;;;;;;18.40;8.80;;;19.10;85.40;;;19.78;47.71;98614.78;5024571;28;20037;-74
2022/11/15 10:33:36;;;;;;;15.57;7.60;;;19.10;85.40;;;19.78;47.52;98606.53;4997568;28;20055;-74
2022/11/15 10:36:24;;;;;;;11.25;6.53;;;19.20;85.20;;;19.77;47.40;98599.41;5024555;28;20048;-74
2022/11/15 10:38:50;;;;;;;14.30;8.02;;;19.20;85.00;;;19.78;47.43;98590.81;4996874;28;20052;-74